sensor_id;sensor_type;location;lat;lon;timestamp;temperature;humidity
19248;DHT22;9758;48.640;8.148;2023-08-12T00:01:59;25.40;43.30
19248;DHT22;9758;48.640;8.148;2023-08-12T00:04:26;25.40;43.30
19248;DHT22;9758;48.640;8.148;2023-08-12T00:06:52;25.40;43.30
19248;DHT22;9758;48.640;8.148;2023-08-12T00:09:19;25.40;43.30
19248;DHT22;9758;48.640;8.148;2023-08-12T00:11:47;25.40;43.40
19248;DHT22;9758;48.640;8.148;2023-08-12T00:14:14;25.40;43.30
19248;DHT22;9758;48.640;8.148;2023-08-12T00:16:41;25.40;43.40
19248;DHT22;9758;48.640;8.148;2023-08-12T00:19:08;25.40;43.30
19248;DHT22;9758;48.640;8.148;2023-08-12T00:21:35;25.40;43.30
19248;DHT22;9758;48.640;8.148;2023-08-12T00:24:02;25.40;43.30
19248;DHT22;9758;48.640;8.148;2023-08-12T00:26:29;25.40;43.30
19248;DHT22;9758;48.640;8.148;2023-08-12T00:28:57;25.40;43.40
19248;DHT22;9758;48.640;8.148;2023-08-12T00:31:24;25.40;43.40
19248;DHT22;9758;48.640;8.148;2023-08-12T00:33:51;25.50;43.40
19248;DHT22;9758;48.640;8.148;2023-08-12T00:36:17;25.50;43.40
19248;DHT22;9758;48.640;8.148;2023-08-12T00:38:44;25.50;43.40
19248;DHT22;9758;48.640;8.148;2023-08-12T00:41:11;25.50;43.40
19248;DHT22;9758;48.640;8.148;2023-08-12T00:43:38;25.50;43.30
19248;DHT22;9758;48.640;8.148;2023-08-12T00:46:06;25.50;43.30
19248;DHT22;9758;48.640;8.148;2023-08-12T00:48:33;25.50;43.40
19248;DHT22;9758;48.640;8.148;2023-08-12T00:51:00;25.50;43.30
19248;DHT22;9758;48.640;8.148;2023-08-12T00:53:28;25.50;43.30
19248;DHT22;9758;48.640;8.148;2023-08-12T00:55:55;25.50;43.30
19248;DHT22;9758;48.640;8.148;2023-08-12T00:58:23;25.50;43.30
19248;DHT22;9758;48.640;8.148;2023-08-12T01:00:50;25.50;43.30
19248;DHT22;9758;48.640;8.148;2023-08-12T01:03:18;25.50;43.40
19248;DHT22;9758;48.640;8.148;2023-08-12T01:05:46;25.50;43.40
19248;DHT22;9758;48.640;8.148;2023-08-12T01:08:13;25.50;43.40
19248;DHT22;9758;48.640;8.148;2023-08-12T01:10:44;25.50;43.60
19248;DHT22;9758;48.640;8.148;2023-08-12T01:13:19;25.50;43.60
19248;DHT22;9758;48.640;8.148;2023-08-12T01:15:52;25.40;43.60
19248;DHT22;9758;48.640;8.148;2023-08-12T01:18:23;25.30;43.60
19248;DHT22;9758;48.640;8.148;2023-08-12T01:20:50;25.30;43.60
19248;DHT22;9758;48.640;8.148;2023-08-12T01:23:19;25.20;43.60
19248;DHT22;9758;48.640;8.148;2023-08-12T01:25:46;25.20;43.70
19248;DHT22;9758;48.640;8.148;2023-08-12T01:28:13;25.20;43.70
19248;DHT22;9758;48.640;8.148;2023-08-12T01:30:46;25.10;43.70
19248;DHT22;9758;48.640;8.148;2023-08-12T01:33:19;25.10;43.70
19248;DHT22;9758;48.640;8.148;2023-08-12T01:35:51;25.10;43.80
19248;DHT22;9758;48.640;8.148;2023-08-12T01:38:22;25.10;43.80
19248;DHT22;9758;48.640;8.148;2023-08-12T01:40:51;25.00;43.90
19248;DHT22;9758;48.640;8.148;2023-08-12T01:43:19;25.00;44.00
19248;DHT22;9758;48.640;8.148;2023-08-12T01:45:46;24.90;44.00
19248;DHT22;9758;48.640;8.148;2023-08-12T01:48:12;24.80;44.10
19248;DHT22;9758;48.640;8.148;2023-08-12T01:50:39;24.80;44.20
19248;DHT22;9758;48.640;8.148;2023-08-12T01:53:12;24.70;44.30
19248;DHT22;9758;48.640;8.148;2023-08-12T01:55:43;24.70;44.30
19248;DHT22;9758;48.640;8.148;2023-08-12T01:58:11;24.70;44.30
19248;DHT22;9758;48.640;8.148;2023-08-12T02:00:38;24.60;44.30
19248;DHT22;9758;48.640;8.148;2023-08-12T02:03:05;24.60;44.30
19248;DHT22;9758;48.640;8.148;2023-08-12T02:05:33;24.60;44.40
19248;DHT22;9758;48.640;8.148;2023-08-12T02:07:59;24.60;44.40
19248;DHT22;9758;48.640;8.148;2023-08-12T02:10:26;24.50;44.40
19248;DHT22;9758;48.640;8.148;2023-08-12T02:12:57;24.50;44.40
19248;DHT22;9758;48.640;8.148;2023-08-12T02:15:23;24.40;44.40
19248;DHT22;9758;48.640;8.148;2023-08-12T02:17:50;24.40;44.50
19248;DHT22;9758;48.640;8.148;2023-08-12T02:20:17;24.40;44.50
19248;DHT22;9758;48.640;8.148;2023-08-12T02:22:44;24.40;44.60
19248;DHT22;9758;48.640;8.148;2023-08-12T02:25:11;24.40;44.60
19248;DHT22;9758;48.640;8.148;2023-08-12T02:27:39;24.40;44.70
19248;DHT22;9758;48.640;8.148;2023-08-12T02:30:09;24.30;44.60
19248;DHT22;9758;48.640;8.148;2023-08-12T02:32:36;24.30;44.70
19248;DHT22;9758;48.640;8.148;2023-08-12T02:35:02;24.30;45.30
19248;DHT22;9758;48.640;8.148;2023-08-12T02:37:29;24.30;44.70
19248;DHT22;9758;48.640;8.148;2023-08-12T02:39:57;24.30;44.80
19248;DHT22;9758;48.640;8.148;2023-08-12T02:42:24;24.30;44.80
19248;DHT22;9758;48.640;8.148;2023-08-12T02:44:51;24.30;44.80
19248;DHT22;9758;48.640;8.148;2023-08-12T02:47:19;24.30;44.80
19248;DHT22;9758;48.640;8.148;2023-08-12T02:49:47;24.40;44.90
19248;DHT22;9758;48.640;8.148;2023-08-12T02:52:14;24.40;44.90
19248;DHT22;9758;48.640;8.148;2023-08-12T02:54:41;24.40;44.90
19248;DHT22;9758;48.640;8.148;2023-08-12T02:57:08;24.30;45.50
19248;DHT22;9758;48.640;8.148;2023-08-12T02:59:34;24.40;44.90
19248;DHT22;9758;48.640;8.148;2023-08-12T03:02:01;24.40;44.90
19248;DHT22;9758;48.640;8.148;2023-08-12T03:04:30;24.40;44.90
19248;DHT22;9758;48.640;8.148;2023-08-12T03:06:56;24.40;44.90
19248;DHT22;9758;48.640;8.148;2023-08-12T03:09:23;24.40;44.90
19248;DHT22;9758;48.640;8.148;2023-08-12T03:11:50;24.40;45.00
19248;DHT22;9758;48.640;8.148;2023-08-12T03:14:17;24.30;45.00
19248;DHT22;9758;48.640;8.148;2023-08-12T03:16:44;24.30;45.00
19248;DHT22;9758;48.640;8.148;2023-08-12T03:19:10;24.30;45.10
19248;DHT22;9758;48.640;8.148;2023-08-12T03:21:39;24.30;45.10
19248;DHT22;9758;48.640;8.148;2023-08-12T03:24:06;24.30;45.10
19248;DHT22;9758;48.640;8.148;2023-08-12T03:26:33;24.30;45.80
19248;DHT22;9758;48.640;8.148;2023-08-12T03:28:59;24.30;45.20
19248;DHT22;9758;48.640;8.148;2023-08-12T03:31:26;24.30;45.20
19248;DHT22;9758;48.640;8.148;2023-08-12T03:33:53;24.30;45.20
19248;DHT22;9758;48.640;8.148;2023-08-12T03:36:20;24.30;45.20
19248;DHT22;9758;48.640;8.148;2023-08-12T03:38:48;24.30;45.20
19248;DHT22;9758;48.640;8.148;2023-08-12T03:41:15;24.30;45.30
19248;DHT22;9758;48.640;8.148;2023-08-12T03:43:41;24.30;45.20
19248;DHT22;9758;48.640;8.148;2023-08-12T03:46:08;24.30;45.30
19248;DHT22;9758;48.640;8.148;2023-08-12T03:48:35;24.30;45.30
19248;DHT22;9758;48.640;8.148;2023-08-12T03:51:02;24.30;45.40
19248;DHT22;9758;48.640;8.148;2023-08-12T03:53:28;24.20;45.40
19248;DHT22;9758;48.640;8.148;2023-08-12T03:55:57;24.20;45.40
19248;DHT22;9758;48.640;8.148;2023-08-12T03:58:24;24.20;45.50
19248;DHT22;9758;48.640;8.148;2023-08-12T04:00:51;24.20;45.50
19248;DHT22;9758;48.640;8.148;2023-08-12T04:03:18;24.20;45.50
19248;DHT22;9758;48.640;8.148;2023-08-12T04:05:48;24.20;45.60
19248;DHT22;9758;48.640;8.148;2023-08-12T04:08:18;24.20;45.60
19248;DHT22;9758;48.640;8.148;2023-08-12T04:10:45;24.20;45.70
19248;DHT22;9758;48.640;8.148;2023-08-12T04:13:15;24.20;45.70
19248;DHT22;9758;48.640;8.148;2023-08-12T04:15:42;24.20;45.70
19248;DHT22;9758;48.640;8.148;2023-08-12T04:18:09;24.20;45.70
19248;DHT22;9758;48.640;8.148;2023-08-12T04:20:37;24.20;45.80
19248;DHT22;9758;48.640;8.148;2023-08-12T04:23:03;24.20;45.70
19248;DHT22;9758;48.640;8.148;2023-08-12T04:25:30;24.20;45.80
19248;DHT22;9758;48.640;8.148;2023-08-12T04:27:57;24.20;45.90
19248;DHT22;9758;48.640;8.148;2023-08-12T04:30:25;24.10;45.80
19248;DHT22;9758;48.640;8.148;2023-08-12T04:32:53;24.10;45.90
19248;DHT22;9758;48.640;8.148;2023-08-12T04:35:19;24.10;45.90
19248;DHT22;9758;48.640;8.148;2023-08-12T04:37:46;24.10;46.00
19248;DHT22;9758;48.640;8.148;2023-08-12T04:40:13;24.10;46.00
19248;DHT22;9758;48.640;8.148;2023-08-12T04:42:40;24.10;46.00
19248;DHT22;9758;48.640;8.148;2023-08-12T04:45:07;24.10;46.00
19248;DHT22;9758;48.640;8.148;2023-08-12T04:47:35;24.10;46.10
19248;DHT22;9758;48.640;8.148;2023-08-12T04:50:03;24.10;46.10
19248;DHT22;9758;48.640;8.148;2023-08-12T04:52:29;24.10;46.10
19248;DHT22;9758;48.640;8.148;2023-08-12T04:54:56;24.10;46.20
19248;DHT22;9758;48.640;8.148;2023-08-12T04:57:23;24.10;46.20
19248;DHT22;9758;48.640;8.148;2023-08-12T04:59:50;24.10;46.30
19248;DHT22;9758;48.640;8.148;2023-08-12T05:02:16;24.10;46.30
19248;DHT22;9758;48.640;8.148;2023-08-12T05:04:48;24.10;46.30
19248;DHT22;9758;48.640;8.148;2023-08-12T05:07:15;24.10;46.30
19248;DHT22;9758;48.640;8.148;2023-08-12T05:09:42;24.10;46.40
19248;DHT22;9758;48.640;8.148;2023-08-12T05:12:10;24.10;46.30
19248;DHT22;9758;48.640;8.148;2023-08-12T05:14:36;24.10;46.50
19248;DHT22;9758;48.640;8.148;2023-08-12T05:17:03;24.10;46.50
19248;DHT22;9758;48.640;8.148;2023-08-12T05:19:30;24.10;46.50
19248;DHT22;9758;48.640;8.148;2023-08-12T05:21:58;24.10;46.50
19248;DHT22;9758;48.640;8.148;2023-08-12T05:24:25;24.20;46.60
19248;DHT22;9758;48.640;8.148;2023-08-12T05:26:52;24.20;46.60
19248;DHT22;9758;48.640;8.148;2023-08-12T05:29:19;24.20;46.60
19248;DHT22;9758;48.640;8.148;2023-08-12T05:31:45;24.30;46.60
19248;DHT22;9758;48.640;8.148;2023-08-12T05:34:12;24.30;46.60
19248;DHT22;9758;48.640;8.148;2023-08-12T05:36:39;24.30;46.60
19248;DHT22;9758;48.640;8.148;2023-08-12T05:39:07;24.30;46.60
19248;DHT22;9758;48.640;8.148;2023-08-12T05:41:34;24.30;46.60
19248;DHT22;9758;48.640;8.148;2023-08-12T05:44:01;24.30;46.60
19248;DHT22;9758;48.640;8.148;2023-08-12T05:46:27;24.30;46.60
19248;DHT22;9758;48.640;8.148;2023-08-12T05:48:54;24.30;46.60
19248;DHT22;9758;48.640;8.148;2023-08-12T05:51:21;24.30;46.60
19248;DHT22;9758;48.640;8.148;2023-08-12T05:53:48;24.40;46.60
19248;DHT22;9758;48.640;8.148;2023-08-12T05:56:16;24.40;46.60
19248;DHT22;9758;48.640;8.148;2023-08-12T05:58:43;24.40;46.60
19248;DHT22;9758;48.640;8.148;2023-08-12T06:01:10;24.40;46.60
19248;DHT22;9758;48.640;8.148;2023-08-12T06:03:37;24.40;46.60
19248;DHT22;9758;48.640;8.148;2023-08-12T06:06:04;24.50;46.70
19248;DHT22;9758;48.640;8.148;2023-08-12T06:08:30;24.50;46.70
19248;DHT22;9758;48.640;8.148;2023-08-12T06:10:57;24.60;46.70
19248;DHT22;9758;48.640;8.148;2023-08-12T06:13:25;24.60;46.70
19248;DHT22;9758;48.640;8.148;2023-08-12T06:15:52;24.60;46.70
19248;DHT22;9758;48.640;8.148;2023-08-12T06:18:19;24.70;46.80
19248;DHT22;9758;48.640;8.148;2023-08-12T06:20:46;24.80;46.70
19248;DHT22;9758;48.640;8.148;2023-08-12T06:23:12;24.80;46.70
19248;DHT22;9758;48.640;8.148;2023-08-12T06:25:39;24.90;46.70
19248;DHT22;9758;48.640;8.148;2023-08-12T06:28:08;25.00;46.70
19248;DHT22;9758;48.640;8.148;2023-08-12T06:30:37;25.00;46.70
19248;DHT22;9758;48.640;8.148;2023-08-12T06:33:04;25.10;46.80
19248;DHT22;9758;48.640;8.148;2023-08-12T06:35:30;25.20;46.90
19248;DHT22;9758;48.640;8.148;2023-08-12T06:37:57;25.30;46.80
19248;DHT22;9758;48.640;8.148;2023-08-12T06:40:24;25.30;46.70
19248;DHT22;9758;48.640;8.148;2023-08-12T06:42:52;25.40;46.70
19248;DHT22;9758;48.640;8.148;2023-08-12T06:45:19;25.40;46.70
19248;DHT22;9758;48.640;8.148;2023-08-12T06:47:47;25.50;46.90
19248;DHT22;9758;48.640;8.148;2023-08-12T06:50:13;25.60;46.90
19248;DHT22;9758;48.640;8.148;2023-08-12T06:52:41;25.70;46.90
19248;DHT22;9758;48.640;8.148;2023-08-12T06:55:08;25.80;46.90
19248;DHT22;9758;48.640;8.148;2023-08-12T06:57:34;25.90;47.50
19248;DHT22;9758;48.640;8.148;2023-08-12T07:00:02;26.00;46.80
19248;DHT22;9758;48.640;8.148;2023-08-12T07:02:30;26.10;46.70
19248;DHT22;9758;48.640;8.148;2023-08-12T07:04:59;26.30;46.80
19248;DHT22;9758;48.640;8.148;2023-08-12T07:07:27;26.40;46.70
19248;DHT22;9758;48.640;8.148;2023-08-12T07:09:53;26.40;46.60
19248;DHT22;9758;48.640;8.148;2023-08-12T07:12:20;26.50;46.50
19248;DHT22;9758;48.640;8.148;2023-08-12T07:14:47;26.50;46.40
19248;DHT22;9758;48.640;8.148;2023-08-12T07:17:14;26.60;46.40
19248;DHT22;9758;48.640;8.148;2023-08-12T07:19:41;26.60;46.50
19248;DHT22;9758;48.640;8.148;2023-08-12T07:22:09;26.70;46.50
19248;DHT22;9758;48.640;8.148;2023-08-12T07:24:36;26.80;46.60
19248;DHT22;9758;48.640;8.148;2023-08-12T07:27:03;26.80;46.50
19248;DHT22;9758;48.640;8.148;2023-08-12T07:29:30;26.80;46.50
19248;DHT22;9758;48.640;8.148;2023-08-12T07:31:57;26.80;46.50
19248;DHT22;9758;48.640;8.148;2023-08-12T07:34:24;26.90;46.60
19248;DHT22;9758;48.640;8.148;2023-08-12T07:37:05;27.00;46.60
19248;DHT22;9758;48.640;8.148;2023-08-12T07:39:33;27.20;46.70
19248;DHT22;9758;48.640;8.148;2023-08-12T07:42:00;27.30;46.50
19248;DHT22;9758;48.640;8.148;2023-08-12T07:44:27;27.50;46.40
19248;DHT22;9758;48.640;8.148;2023-08-12T07:46:54;27.60;46.30
19248;DHT22;9758;48.640;8.148;2023-08-12T07:49:21;27.70;46.30
19248;DHT22;9758;48.640;8.148;2023-08-12T07:51:48;27.70;46.30
19248;DHT22;9758;48.640;8.148;2023-08-12T07:54:15;27.90;46.30
19248;DHT22;9758;48.640;8.148;2023-08-12T07:56:44;28.00;46.30
19248;DHT22;9758;48.640;8.148;2023-08-12T07:59:22;28.10;46.20
19248;DHT22;9758;48.640;8.148;2023-08-12T08:01:49;28.30;46.20
19248;DHT22;9758;48.640;8.148;2023-08-12T08:04:16;28.30;45.90
19248;DHT22;9758;48.640;8.148;2023-08-12T08:06:43;28.40;46.00
19248;DHT22;9758;48.640;8.148;2023-08-12T08:09:10;28.50;46.00
19248;DHT22;9758;48.640;8.148;2023-08-12T08:11:38;28.60;46.10
19248;DHT22;9758;48.640;8.148;2023-08-12T08:14:06;28.60;46.20
19248;DHT22;9758;48.640;8.148;2023-08-12T08:16:33;28.70;45.90
19248;DHT22;9758;48.640;8.148;2023-08-12T08:19:00;28.70;45.90
19248;DHT22;9758;48.640;8.148;2023-08-12T08:21:27;28.70;45.90
19248;DHT22;9758;48.640;8.148;2023-08-12T08:23:54;28.70;45.80
19248;DHT22;9758;48.640;8.148;2023-08-12T08:26:20;28.70;45.90
19248;DHT22;9758;48.640;8.148;2023-08-12T08:28:47;28.70;45.90
19248;DHT22;9758;48.640;8.148;2023-08-12T08:31:15;28.70;45.90
19248;DHT22;9758;48.640;8.148;2023-08-12T08:33:42;28.70;46.00
19248;DHT22;9758;48.640;8.148;2023-08-12T08:36:09;28.80;46.00
19248;DHT22;9758;48.640;8.148;2023-08-12T08:38:36;28.90;46.00
19248;DHT22;9758;48.640;8.148;2023-08-12T08:41:05;29.00;46.00
19248;DHT22;9758;48.640;8.148;2023-08-12T08:43:35;29.00;46.00
19248;DHT22;9758;48.640;8.148;2023-08-12T08:46:03;29.00;45.80
19248;DHT22;9758;48.640;8.148;2023-08-12T08:48:32;29.00;45.80
19248;DHT22;9758;48.640;8.148;2023-08-12T08:51:00;28.90;45.90
19248;DHT22;9758;48.640;8.148;2023-08-12T08:53:27;29.00;45.90
19248;DHT22;9758;48.640;8.148;2023-08-12T08:55:55;28.90;45.80
19248;DHT22;9758;48.640;8.148;2023-08-12T08:58:22;28.90;46.00
19248;DHT22;9758;48.640;8.148;2023-08-12T09:00:49;28.90;45.90
19248;DHT22;9758;48.640;8.148;2023-08-12T09:03:17;28.80;45.80
19248;DHT22;9758;48.640;8.148;2023-08-12T09:05:45;28.70;45.90
19248;DHT22;9758;48.640;8.148;2023-08-12T09:08:13;28.60;45.90
19248;DHT22;9758;48.640;8.148;2023-08-12T09:10:41;28.50;45.90
19248;DHT22;9758;48.640;8.148;2023-08-12T09:13:08;28.50;46.20
19248;DHT22;9758;48.640;8.148;2023-08-12T09:15:35;28.50;46.10
19248;DHT22;9758;48.640;8.148;2023-08-12T09:18:02;28.50;46.30
19248;DHT22;9758;48.640;8.148;2023-08-12T09:20:31;28.60;46.40
19248;DHT22;9758;48.640;8.148;2023-08-12T09:22:59;28.70;46.40
19248;DHT22;9758;48.640;8.148;2023-08-12T09:25:27;28.90;46.60
19248;DHT22;9758;48.640;8.148;2023-08-12T09:27:55;28.90;46.30
19248;DHT22;9758;48.640;8.148;2023-08-12T09:30:22;29.00;46.20
19248;DHT22;9758;48.640;8.148;2023-08-12T09:32:58;29.00;46.30
19248;DHT22;9758;48.640;8.148;2023-08-12T09:35:32;28.90;46.30
19248;DHT22;9758;48.640;8.148;2023-08-12T09:38:01;29.00;46.40
19248;DHT22;9758;48.640;8.148;2023-08-12T09:40:29;29.10;46.40
19248;DHT22;9758;48.640;8.148;2023-08-12T09:42:56;29.20;46.30
19248;DHT22;9758;48.640;8.148;2023-08-12T09:45:24;29.20;46.30
19248;DHT22;9758;48.640;8.148;2023-08-12T09:47:51;29.30;46.30
19248;DHT22;9758;48.640;8.148;2023-08-12T09:50:21;29.30;46.20
19248;DHT22;9758;48.640;8.148;2023-08-12T09:52:48;29.40;46.20
19248;DHT22;9758;48.640;8.148;2023-08-12T09:55:17;29.40;46.10
19248;DHT22;9758;48.640;8.148;2023-08-12T09:57:48;29.50;46.10
19248;DHT22;9758;48.640;8.148;2023-08-12T10:00:16;29.60;46.10
19248;DHT22;9758;48.640;8.148;2023-08-12T10:02:44;29.70;46.00
19248;DHT22;9758;48.640;8.148;2023-08-12T10:05:16;29.70;45.90
19248;DHT22;9758;48.640;8.148;2023-08-12T10:07:45;29.70;45.90
19248;DHT22;9758;48.640;8.148;2023-08-12T10:10:12;29.70;45.80
19248;DHT22;9758;48.640;8.148;2023-08-12T10:12:42;29.70;45.70
19248;DHT22;9758;48.640;8.148;2023-08-12T10:15:10;29.70;45.80
19248;DHT22;9758;48.640;8.148;2023-08-12T10:17:38;29.70;45.70
19248;DHT22;9758;48.640;8.148;2023-08-12T10:20:06;29.70;45.80
19248;DHT22;9758;48.640;8.148;2023-08-12T10:22:35;29.70;46.40
19248;DHT22;9758;48.640;8.148;2023-08-12T10:25:03;29.70;45.70
19248;DHT22;9758;48.640;8.148;2023-08-12T10:27:30;29.70;45.70
19248;DHT22;9758;48.640;8.148;2023-08-12T10:29:59;29.70;45.70
19248;DHT22;9758;48.640;8.148;2023-08-12T10:32:28;29.80;45.70
19248;DHT22;9758;48.640;8.148;2023-08-12T10:34:56;29.70;45.50
19248;DHT22;9758;48.640;8.148;2023-08-12T10:37:24;29.70;45.50
19248;DHT22;9758;48.640;8.148;2023-08-12T10:39:52;29.60;45.50
19248;DHT22;9758;48.640;8.148;2023-08-12T10:42:41;29.50;45.40
19248;DHT22;9758;48.640;8.148;2023-08-12T10:45:10;29.40;45.70
19248;DHT22;9758;48.640;8.148;2023-08-12T10:47:39;29.30;45.60
19248;DHT22;9758;48.640;8.148;2023-08-12T10:50:07;29.30;45.70
19248;DHT22;9758;48.640;8.148;2023-08-12T10:52:42;29.30;45.70
19248;DHT22;9758;48.640;8.148;2023-08-12T10:55:21;29.40;45.70
19248;DHT22;9758;48.640;8.148;2023-08-12T10:57:49;29.40;45.80
19248;DHT22;9758;48.640;8.148;2023-08-12T11:00:18;29.50;45.70
19248;DHT22;9758;48.640;8.148;2023-08-12T11:02:49;29.60;45.80
19248;DHT22;9758;48.640;8.148;2023-08-12T11:05:17;29.70;45.80
19248;DHT22;9758;48.640;8.148;2023-08-12T11:07:46;29.80;45.60
19248;DHT22;9758;48.640;8.148;2023-08-12T11:10:15;29.90;45.50
19248;DHT22;9758;48.640;8.148;2023-08-12T11:12:48;29.90;45.40
19248;DHT22;9758;48.640;8.148;2023-08-12T11:15:17;30.00;45.40
19248;DHT22;9758;48.640;8.148;2023-08-12T11:17:46;30.00;45.30
19248;DHT22;9758;48.640;8.148;2023-08-12T11:20:14;30.10;45.90
19248;DHT22;9758;48.640;8.148;2023-08-12T11:22:43;30.10;45.20
19248;DHT22;9758;48.640;8.148;2023-08-12T11:25:13;30.10;45.10
19248;DHT22;9758;48.640;8.148;2023-08-12T11:27:40;30.20;45.10
19248;DHT22;9758;48.640;8.148;2023-08-12T11:30:09;30.10;45.00
19248;DHT22;9758;48.640;8.148;2023-08-12T11:32:38;30.10;45.00
19248;DHT22;9758;48.640;8.148;2023-08-12T11:35:07;30.00;45.00
19248;DHT22;9758;48.640;8.148;2023-08-12T11:37:35;30.00;45.10
19248;DHT22;9758;48.640;8.148;2023-08-12T11:40:03;29.90;45.20
19248;DHT22;9758;48.640;8.148;2023-08-12T11:42:30;29.90;45.20
19248;DHT22;9758;48.640;8.148;2023-08-12T11:44:57;29.80;45.10
19248;DHT22;9758;48.640;8.148;2023-08-12T11:47:24;29.70;45.20
19248;DHT22;9758;48.640;8.148;2023-08-12T11:49:53;29.60;45.30
19248;DHT22;9758;48.640;8.148;2023-08-12T11:52:20;29.60;45.50
19248;DHT22;9758;48.640;8.148;2023-08-12T11:54:49;29.60;45.70
19248;DHT22;9758;48.640;8.148;2023-08-12T11:57:16;29.70;45.80
19248;DHT22;9758;48.640;8.148;2023-08-12T11:59:43;29.80;45.70
19248;DHT22;9758;48.640;8.148;2023-08-12T12:02:10;29.90;45.60
19248;DHT22;9758;48.640;8.148;2023-08-12T12:04:37;29.90;45.60
19248;DHT22;9758;48.640;8.148;2023-08-12T12:07:18;30.00;45.60
19248;DHT22;9758;48.640;8.148;2023-08-12T12:09:45;30.20;45.70
19248;DHT22;9758;48.640;8.148;2023-08-12T12:12:12;30.30;45.60
19248;DHT22;9758;48.640;8.148;2023-08-12T12:14:39;30.40;45.50
19248;DHT22;9758;48.640;8.148;2023-08-12T12:17:07;30.60;45.40
19248;DHT22;9758;48.640;8.148;2023-08-12T12:19:35;30.60;45.20
19248;DHT22;9758;48.640;8.148;2023-08-12T12:22:03;30.70;45.20
19248;DHT22;9758;48.640;8.148;2023-08-12T12:24:43;30.70;45.20
19248;DHT22;9758;48.640;8.148;2023-08-12T12:27:11;30.80;45.20
19248;DHT22;9758;48.640;8.148;2023-08-12T12:29:39;30.90;45.20
19248;DHT22;9758;48.640;8.148;2023-08-12T12:32:06;30.90;45.10
19248;DHT22;9758;48.640;8.148;2023-08-12T12:34:33;31.00;45.00
19248;DHT22;9758;48.640;8.148;2023-08-12T12:36:59;31.00;44.90
19248;DHT22;9758;48.640;8.148;2023-08-12T12:39:26;31.00;44.80
19248;DHT22;9758;48.640;8.148;2023-08-12T12:41:55;31.00;44.80
19248;DHT22;9758;48.640;8.148;2023-08-12T12:44:23;31.00;44.80
19248;DHT22;9758;48.640;8.148;2023-08-12T12:46:50;31.00;44.70
19248;DHT22;9758;48.640;8.148;2023-08-12T12:49:17;30.90;44.60
19248;DHT22;9758;48.640;8.148;2023-08-12T12:51:44;30.80;44.80
19248;DHT22;9758;48.640;8.148;2023-08-12T12:54:11;30.80;44.80
19248;DHT22;9758;48.640;8.148;2023-08-12T12:56:37;30.70;44.80
19248;DHT22;9758;48.640;8.148;2023-08-12T12:59:06;30.80;45.00
19248;DHT22;9758;48.640;8.148;2023-08-12T13:01:33;30.80;45.00
19248;DHT22;9758;48.640;8.148;2023-08-12T13:04:00;30.90;45.00
19248;DHT22;9758;48.640;8.148;2023-08-12T13:06:26;31.00;44.90
19248;DHT22;9758;48.640;8.148;2023-08-12T13:08:53;31.20;45.00
19248;DHT22;9758;48.640;8.148;2023-08-12T13:11:20;31.30;44.90
19248;DHT22;9758;48.640;8.148;2023-08-12T13:13:47;31.50;44.60
19248;DHT22;9758;48.640;8.148;2023-08-12T13:16:15;31.60;44.50
19248;DHT22;9758;48.640;8.148;2023-08-12T13:18:42;31.70;44.50
19248;DHT22;9758;48.640;8.148;2023-08-12T13:21:09;31.70;44.30
19248;DHT22;9758;48.640;8.148;2023-08-12T13:23:36;31.80;44.30
19248;DHT22;9758;48.640;8.148;2023-08-12T13:26:03;31.90;44.40
19248;DHT22;9758;48.640;8.148;2023-08-12T13:28:30;32.00;44.30
19248;DHT22;9758;48.640;8.148;2023-08-12T13:30:57;32.10;44.60
19248;DHT22;9758;48.640;8.148;2023-08-12T13:33:25;32.20;44.10
19248;DHT22;9758;48.640;8.148;2023-08-12T13:35:52;32.20;44.00
19248;DHT22;9758;48.640;8.148;2023-08-12T13:38:18;32.20;43.90
19248;DHT22;9758;48.640;8.148;2023-08-12T13:40:46;32.20;43.70
19248;DHT22;9758;48.640;8.148;2023-08-12T13:43:12;32.10;43.70
19248;DHT22;9758;48.640;8.148;2023-08-12T13:45:39;32.10;43.80
19248;DHT22;9758;48.640;8.148;2023-08-12T13:48:06;32.00;43.80
19248;DHT22;9758;48.640;8.148;2023-08-12T13:50:34;32.00;43.90
19248;DHT22;9758;48.640;8.148;2023-08-12T13:53:02;32.10;44.00
19248;DHT22;9758;48.640;8.148;2023-08-12T13:55:29;32.00;43.90
19248;DHT22;9758;48.640;8.148;2023-08-12T13:57:56;32.00;43.90
19248;DHT22;9758;48.640;8.148;2023-08-12T14:00:23;31.90;43.90
19248;DHT22;9758;48.640;8.148;2023-08-12T14:02:51;31.80;43.80
19248;DHT22;9758;48.640;8.148;2023-08-12T14:05:17;31.70;43.70
19248;DHT22;9758;48.640;8.148;2023-08-12T14:07:46;31.60;43.90
19248;DHT22;9758;48.640;8.148;2023-08-12T14:10:13;31.50;43.90
19248;DHT22;9758;48.640;8.148;2023-08-12T14:12:40;31.30;43.90
19248;DHT22;9758;48.640;8.148;2023-08-12T14:15:07;31.20;44.00
19248;DHT22;9758;48.640;8.148;2023-08-12T14:17:34;31.10;44.00
19248;DHT22;9758;48.640;8.148;2023-08-12T14:20:01;31.10;44.20
19248;DHT22;9758;48.640;8.148;2023-08-12T14:22:27;31.00;44.20
19248;DHT22;9758;48.640;8.148;2023-08-12T14:24:56;30.90;44.30
19248;DHT22;9758;48.640;8.148;2023-08-12T14:27:23;30.80;44.30
19248;DHT22;9758;48.640;8.148;2023-08-12T14:29:52;30.70;44.40
19248;DHT22;9758;48.640;8.148;2023-08-12T14:32:27;30.60;44.50
19248;DHT22;9758;48.640;8.148;2023-08-12T14:35:23;30.50;44.70
19248;DHT22;9758;48.640;8.148;2023-08-12T14:37:59;30.30;44.80
19248;DHT22;9758;48.640;8.148;2023-08-12T15:01:06;28.70;46.50
19248;DHT22;9758;48.640;8.148;2023-08-12T15:03:33;28.20;46.20
19248;DHT22;9758;48.640;8.148;2023-08-12T15:06:00;28.00;46.30
19248;DHT22;9758;48.640;8.148;2023-08-12T15:08:29;27.90;46.30
19248;DHT22;9758;48.640;8.148;2023-08-12T15:10:56;27.80;46.40
19248;DHT22;9758;48.640;8.148;2023-08-12T15:13:24;27.60;46.40
19248;DHT22;9758;48.640;8.148;2023-08-12T15:15:51;27.50;46.60
19248;DHT22;9758;48.640;8.148;2023-08-12T15:18:20;27.50;46.70
19248;DHT22;9758;48.640;8.148;2023-08-12T15:20:46;27.30;46.70
19248;DHT22;9758;48.640;8.148;2023-08-12T15:23:13;27.20;46.80
19248;DHT22;9758;48.640;8.148;2023-08-12T15:25:43;27.10;46.90
19248;DHT22;9758;48.640;8.148;2023-08-12T15:28:10;27.00;47.00
19248;DHT22;9758;48.640;8.148;2023-08-12T15:30:37;26.90;47.20
19248;DHT22;9758;48.640;8.148;2023-08-12T15:33:04;26.80;47.30
19248;DHT22;9758;48.640;8.148;2023-08-12T15:35:33;26.80;47.40
19248;DHT22;9758;48.640;8.148;2023-08-12T15:38:00;26.80;47.60
19248;DHT22;9758;48.640;8.148;2023-08-12T15:40:27;26.70;47.50
19248;DHT22;9758;48.640;8.148;2023-08-12T15:43:03;26.70;47.50
19248;DHT22;9758;48.640;8.148;2023-08-12T15:45:30;26.60;47.60
19248;DHT22;9758;48.640;8.148;2023-08-12T15:47:56;26.60;47.60
19248;DHT22;9758;48.640;8.148;2023-08-12T15:50:23;26.70;47.70
19248;DHT22;9758;48.640;8.148;2023-08-12T15:52:51;26.70;47.80
19248;DHT22;9758;48.640;8.148;2023-08-12T15:55:18;26.80;47.90
19248;DHT22;9758;48.640;8.148;2023-08-12T15:57:45;26.80;47.80
19248;DHT22;9758;48.640;8.148;2023-08-12T16:00:12;26.80;47.80
19248;DHT22;9758;48.640;8.148;2023-08-12T16:02:39;26.80;47.70
19248;DHT22;9758;48.640;8.148;2023-08-12T16:05:06;26.80;47.80
19248;DHT22;9758;48.640;8.148;2023-08-12T16:07:33;26.80;47.70
19248;DHT22;9758;48.640;8.148;2023-08-12T16:10:01;26.80;47.70